SBCZ/CZS METAR and TAF weather

Enter ICAO airport designator
Station Type Date Time Source
SBCZ METAR 2021/04/14 19:00 UTC NOAA

SBCZ 141900Z 12005KT 8000 VCSH BKN030 FEW040TCU 31/24 Q1011


Station Type Date Time Source
SBCZ Decoded METAR 2021/04/14 19:00 UTC NOAA

Cruzeiro Do Sul, Brazil (SBCZ) 07-38S 072-40W
Apr 14, 2021 - 03:00 PM EDT / 2021.04.14 1900 UTC
Wind: from the ESE (120 degrees) at 6 MPH (5 KT):0
Visibility: 4 mile(s):0
Sky conditions: mostly cloudy
Weather: showers in the vicinity; Towering cumulus clouds observed
Temperature: 87 F (31 C)
Heat index: 95.7 F (35.4 C):1
Dew Point: 75 F (24 C)
Relative Humidity: 66%
Pressure (altimeter): 29.85 in. Hg (1011 hPa)
ob: SBCZ 141900Z 12005KT 8000 VCSH BKN030 FEW040TCU 31/24 Q1011
cycle: 19

Station Type Date Time Source
SBCZ TAF 2021/04/14 18:03 UTC NOAA

TAF TAF SBCZ 141527Z 1418/1518 13007KT 9999 BKN030 FEW040TCU TX31/1418Z TN28/1514Z
BECMG 1421/1423 SCT025
BECMG 1508/1510 BKN008
BECMG 1515/1517 BKN015
RMK PHQ

Example: see airport list